createdAt,value
2023-03-16T00:00:13.931Z,1.03
2023-03-16T00:02:44.160Z,1.00
2023-03-16T00:05:15.636Z,1.20
2023-03-16T00:07:45.689Z,0.80
2023-03-16T00:10:18.328Z,1.20
2023-03-16T00:12:48.165Z,1.03
2023-03-16T00:15:18.192Z,0.70
2023-03-16T00:17:49.017Z,0.90
2023-03-16T00:20:20.036Z,1.10
2023-03-16T00:22:49.918Z,1.63
2023-03-16T00:25:24.430Z,1.30
2023-03-16T00:27:54.344Z,0.80
2023-03-16T00:30:24.264Z,0.73
2023-03-16T00:32:55.654Z,0.80
2023-03-16T00:35:25.898Z,1.00
2023-03-16T00:37:57.403Z,0.80
2023-03-16T00:40:31.166Z,0.83
2023-03-16T00:43:01.827Z,0.90
2023-03-16T00:45:32.699Z,1.07
2023-03-16T00:48:03.155Z,0.60
2023-03-16T00:50:33.554Z,0.90
2023-03-16T00:53:03.419Z,1.20
2023-03-16T00:55:36.703Z,0.90
2023-03-16T00:58:07.148Z,0.90
2023-03-16T01:00:37.083Z,1.43
2023-03-16T01:03:06.960Z,1.13
2023-03-16T01:05:36.934Z,1.10
2023-03-16T01:08:07.551Z,0.93
2023-03-16T01:10:45.308Z,1.00
2023-03-16T01:13:15.149Z,0.90
2023-03-16T01:15:46.096Z,0.90
2023-03-16T01:18:16.176Z,1.30
2023-03-16T01:20:51.033Z,0.80
2023-03-16T01:23:21.084Z,0.90
2023-03-16T01:25:55.889Z,1.00
2023-03-16T01:28:27.577Z,1.00
2023-03-16T01:31:02.377Z,1.60
2023-03-16T01:33:33.695Z,1.10
2023-03-16T01:36:06.978Z,1.00
2023-03-16T01:38:49.831Z,1.07
2023-03-16T01:41:23.673Z,1.00
2023-03-16T01:43:58.288Z,1.40
2023-03-16T01:46:31.660Z,1.17
2023-03-16T01:49:10.718Z,0.93
2023-03-16T01:51:45.760Z,1.07
2023-03-16T01:54:21.925Z,1.00
2023-03-16T01:57:01.471Z,0.80
2023-03-16T01:59:36.074Z,0.93
2023-03-16T02:02:06.224Z,0.93
2023-03-16T02:04:45.493Z,2.53
2023-03-16T02:07:20.232Z,0.87
2023-03-16T02:09:52.790Z,0.67
2023-03-16T02:12:25.472Z,0.97
2023-03-16T02:14:58.261Z,1.07
2023-03-16T02:17:31.884Z,1.07
2023-03-16T02:20:19.888Z,0.90
2023-03-16T02:22:54.141Z,1.00
2023-03-16T02:25:27.423Z,1.43
2023-03-16T02:28:07.053Z,0.83
2023-03-16T02:30:44.573Z,0.77
2023-03-16T02:33:16.092Z,0.90
2023-03-16T02:35:47.438Z,0.80
2023-03-16T02:38:17.383Z,1.20
2023-03-16T02:41:02.161Z,1.33
2023-03-16T02:43:37.056Z,0.80
2023-03-16T02:46:36.622Z,0.80
2023-03-16T02:49:11.178Z,1.40
2023-03-16T02:51:42.671Z,0.97
2023-03-16T02:54:12.894Z,0.70
2023-03-16T02:56:44.238Z,0.80
2023-03-16T02:59:15.803Z,0.70
2023-03-16T03:01:49.246Z,0.70
2023-03-16T03:04:20.417Z,1.00
2023-03-16T03:06:51.887Z,0.60
2023-03-16T03:09:22.250Z,0.67
2023-03-16T03:11:55.962Z,0.80
2023-03-16T03:14:25.749Z,0.90
2023-03-16T03:16:58.623Z,1.13
2023-03-16T03:19:28.536Z,1.00
2023-03-16T03:21:58.814Z,1.27
2023-03-16T03:24:30.377Z,1.17
2023-03-16T03:27:01.288Z,1.30
2023-03-16T03:29:34.524Z,2.13
2023-03-16T03:32:08.665Z,0.70
2023-03-16T03:34:38.743Z,1.13
2023-03-16T03:37:08.981Z,1.00
2023-03-16T03:39:40.432Z,1.00
2023-03-16T03:42:11.802Z,1.10
2023-03-16T03:44:41.820Z,1.03
2023-03-16T03:47:14.314Z,0.90
2023-03-16T03:49:44.208Z,1.10
2023-03-16T03:52:15.373Z,1.00
2023-03-16T03:54:45.235Z,1.53
2023-03-16T03:57:19.866Z,1.23
2023-03-16T03:59:51.273Z,1.10
2023-03-16T04:02:43.500Z,1.40
2023-03-16T04:05:27.642Z,1.47
2023-03-16T04:07:57.929Z,0.77
2023-03-16T04:10:30.238Z,1.10
2023-03-16T04:13:01.720Z,1.23
2023-03-16T04:15:38.629Z,1.90
2023-03-16T04:18:16.597Z,1.10
2023-03-16T04:20:46.880Z,0.80
2023-03-16T04:23:20.524Z,0.77
2023-03-16T04:25:52.195Z,0.80
2023-03-16T04:28:26.418Z,0.93
2023-03-16T04:30:57.383Z,1.10
2023-03-16T04:33:42.840Z,0.77
2023-03-16T04:36:13.008Z,0.83
2023-03-16T04:38:44.200Z,1.33
2023-03-16T04:41:15.388Z,1.00
2023-03-16T04:43:53.201Z,1.00
2023-03-16T04:46:27.304Z,1.13
2023-03-16T04:49:00.183Z,0.80
2023-03-16T04:51:32.093Z,1.17
2023-03-16T04:54:08.266Z,1.10
2023-03-16T04:56:42.328Z,0.93
2023-03-16T04:59:41.665Z,1.03
2023-03-16T05:02:21.238Z,1.00
2023-03-16T05:04:55.230Z,1.83
2023-03-16T05:07:25.695Z,1.27
2023-03-16T05:09:58.007Z,1.00
2023-03-16T05:12:27.854Z,1.53
2023-03-16T05:15:03.019Z,1.00
2023-03-16T05:17:42.338Z,0.97
2023-03-16T05:20:17.242Z,1.40
2023-03-16T05:22:54.560Z,1.40
2023-03-16T05:25:33.971Z,1.10
2023-03-16T05:28:08.097Z,1.40
2023-03-16T05:30:53.298Z,1.70
2023-03-16T05:33:27.928Z,1.03
2023-03-16T05:36:11.119Z,1.17
2023-03-16T05:38:43.920Z,1.30
2023-03-16T05:41:18.780Z,1.90
2023-03-16T05:44:00.915Z,1.20
2023-03-16T05:46:40.279Z,1.37
2023-03-16T05:49:13.017Z,1.80
2023-03-16T05:51:45.961Z,1.03
2023-03-16T05:54:16.232Z,1.30
2023-03-16T05:56:48.542Z,1.93
2023-03-16T05:59:20.625Z,1.00
2023-03-16T06:01:56.345Z,1.03
2023-03-16T06:04:27.107Z,2.60
2023-03-16T06:07:00.075Z,0.80
2023-03-16T06:09:31.809Z,0.90
2023-03-16T06:12:02.181Z,0.93
2023-03-16T06:14:32.440Z,1.00
2023-03-16T06:17:03.062Z,1.47
2023-03-16T06:19:34.172Z,0.90
2023-03-16T06:22:08.633Z,1.17
2023-03-16T06:24:38.692Z,0.90
2023-03-16T06:27:08.759Z,1.00
2023-03-16T06:29:49.913Z,0.80
2023-03-16T06:32:20.156Z,1.20
2023-03-16T06:34:50.039Z,1.83
2023-03-16T06:37:23.397Z,1.03
2023-03-16T06:39:53.903Z,0.70
2023-03-16T06:42:24.012Z,1.00
2023-03-16T06:44:53.957Z,1.23
2023-03-16T06:47:24.627Z,1.10
2023-03-16T06:49:55.376Z,1.20
2023-03-16T06:52:30.287Z,1.00
2023-03-16T06:55:00.673Z,0.77
2023-03-16T06:57:33.571Z,0.90
2023-03-16T07:00:04.401Z,1.10
2023-03-16T07:02:36.214Z,1.07
2023-03-16T07:05:07.770Z,0.90
2023-03-16T07:07:40.257Z,1.40
2023-03-16T07:10:12.435Z,1.53
2023-03-16T07:12:42.772Z,1.77
2023-03-16T07:15:14.134Z,0.77
2023-03-16T07:17:44.184Z,1.00
2023-03-16T07:20:16.051Z,0.93
2023-03-16T07:22:49.221Z,0.80
2023-03-16T07:25:19.062Z,1.00
2023-03-16T07:27:53.687Z,0.97
2023-03-16T07:30:30.377Z,1.30
2023-03-16T07:33:01.788Z,0.93
2023-03-16T07:35:31.733Z,0.90
2023-03-16T07:38:04.449Z,0.80
2023-03-16T07:40:36.163Z,1.03
2023-03-16T07:43:13.674Z,0.97
2023-03-16T07:45:52.796Z,1.23
2023-03-16T07:48:23.642Z,0.70
2023-03-16T07:51:05.218Z,0.70
2023-03-16T07:53:38.218Z,0.80
2023-03-16T07:56:42.370Z,0.73
2023-03-16T07:59:25.803Z,0.73
2023-03-16T08:01:55.826Z,0.80
2023-03-16T08:04:26.328Z,0.97
2023-03-16T08:07:00.332Z,1.00
2023-03-16T08:09:39.956Z,0.77
2023-03-16T08:12:13.222Z,0.80
2023-03-16T08:14:45.791Z,0.80
2023-03-16T08:17:21.699Z,0.80
2023-03-16T08:19:53.432Z,0.63
2023-03-16T08:22:25.974Z,0.90
2023-03-16T08:24:58.692Z,0.63
2023-03-16T08:27:30.020Z,0.70
2023-03-16T08:30:06.000Z,1.07
2023-03-16T08:32:40.112Z,0.77
2023-03-16T08:35:14.300Z,0.70
2023-03-16T08:37:46.766Z,0.60
2023-03-16T08:40:22.527Z,0.70
2023-03-16T08:42:54.607Z,0.90
2023-03-16T08:45:24.652Z,0.80
2023-03-16T08:47:54.787Z,1.33
2023-03-16T08:50:24.627Z,0.83
2023-03-16T08:52:54.483Z,1.03
2023-03-16T08:55:27.254Z,0.70
2023-03-16T08:57:57.627Z,0.70
2023-03-16T09:00:28.917Z,0.60
2023-03-16T09:03:00.791Z,1.10
2023-03-16T09:05:30.687Z,1.00
2023-03-16T09:08:01.691Z,0.73
2023-03-16T09:10:34.137Z,1.00
2023-03-16T09:13:05.039Z,0.83
2023-03-16T09:15:35.541Z,0.70
2023-03-16T09:18:05.881Z,0.80
2023-03-16T09:20:36.065Z,0.80
2023-03-16T09:23:06.542Z,0.77
2023-03-16T09:25:38.941Z,0.60
2023-03-16T09:28:09.531Z,0.60
2023-03-16T09:30:39.677Z,0.93
2023-03-16T09:33:09.895Z,0.63
2023-03-16T09:35:41.489Z,0.77
2023-03-16T09:38:11.605Z,0.80
2023-03-16T09:40:46.054Z,0.80
2023-03-16T09:43:32.541Z,0.67
2023-03-16T09:46:08.725Z,0.90
2023-03-16T09:48:41.871Z,1.27
2023-03-16T09:51:21.749Z,0.70
2023-03-16T09:53:55.195Z,0.70
2023-03-16T09:56:33.654Z,0.90
2023-03-16T09:59:04.372Z,0.97
2023-03-16T10:01:40.672Z,1.30
2023-03-16T10:04:19.901Z,1.10
2023-03-16T10:06:57.871Z,0.87
2023-03-16T10:09:35.517Z,2.43
2023-03-16T10:12:10.398Z,1.37
2023-03-16T10:14:48.101Z,1.33
2023-03-16T10:17:21.949Z,1.00
2023-03-16T10:19:58.441Z,1.07
2023-03-16T10:22:30.205Z,1.20
2023-03-16T10:25:12.826Z,1.40
2023-03-16T10:27:48.302Z,1.20
2023-03-16T10:30:24.813Z,1.50
2023-03-16T10:32:55.505Z,0.90
2023-03-16T10:35:46.056Z,1.30
2023-03-16T10:38:30.825Z,1.57
2023-03-16T10:41:00.848Z,1.50
2023-03-16T10:43:34.383Z,1.07
2023-03-16T10:46:04.961Z,1.13
2023-03-16T10:48:36.099Z,1.00
2023-03-16T10:51:12.041Z,1.30
2023-03-16T10:53:45.363Z,1.20
2023-03-16T10:56:22.694Z,1.17
2023-03-16T10:58:56.551Z,1.40
2023-03-16T11:01:29.554Z,1.63
2023-03-16T11:04:01.815Z,1.73
2023-03-16T11:06:33.608Z,1.30
2023-03-16T11:09:08.954Z,1.57
2023-03-16T11:11:39.812Z,1.30
2023-03-16T11:14:16.821Z,1.83
2023-03-16T11:16:51.111Z,1.30
2023-03-16T11:19:24.207Z,1.80
2023-03-16T11:21:59.973Z,2.00
2023-03-16T11:24:36.139Z,1.70
2023-03-16T11:27:12.788Z,1.50
2023-03-16T11:29:57.020Z,1.73
2023-03-16T11:32:33.382Z,1.00
2023-03-16T11:35:04.692Z,1.80
2023-03-16T11:37:46.296Z,1.77
2023-03-16T11:40:26.971Z,1.43
2023-03-16T11:43:05.515Z,1.80
2023-03-16T11:45:44.160Z,1.13
2023-03-16T11:48:31.770Z,1.50
2023-03-16T11:51:06.945Z,1.70
2023-03-16T11:53:51.199Z,1.70
2023-03-16T11:56:32.031Z,1.80
2023-03-16T11:59:35.353Z,1.43
2023-03-16T12:02:34.858Z,1.87
2023-03-16T12:05:45.130Z,1.50
2023-03-16T12:08:27.997Z,1.20
2023-03-16T12:11:02.635Z,1.30
2023-03-16T12:13:45.101Z,2.37
2023-03-16T12:16:21.199Z,2.07
2023-03-16T12:19:00.392Z,1.43
2023-03-16T12:21:34.495Z,1.83
2023-03-16T12:24:07.135Z,1.87
2023-03-16T12:26:42.228Z,1.57
2023-03-16T12:29:23.446Z,1.40
2023-03-16T12:31:58.156Z,1.47
2023-03-16T12:34:39.665Z,1.60
2023-03-16T12:37:30.305Z,1.53
2023-03-16T12:40:17.716Z,2.00
2023-03-16T12:43:01.470Z,2.17
2023-03-16T12:45:42.110Z,1.70
2023-03-16T12:48:20.309Z,1.20
2023-03-16T12:51:01.356Z,1.40
2023-03-16T12:53:42.528Z,1.37
2023-03-16T12:56:15.263Z,1.50
2023-03-16T12:58:48.772Z,1.40
2023-03-16T13:01:21.199Z,1.17
2023-03-16T13:03:53.486Z,1.93
2023-03-16T13:06:27.268Z,1.50
2023-03-16T13:09:01.589Z,1.40
2023-03-16T13:11:43.784Z,1.83
2023-03-16T13:14:20.077Z,1.47
2023-03-16T13:16:50.862Z,1.40
2023-03-16T13:19:29.001Z,1.90
2023-03-16T13:22:22.120Z,1.63
2023-03-16T13:24:57.685Z,1.83
2023-03-16T13:27:31.151Z,1.20
2023-03-16T13:30:03.560Z,1.70
2023-03-16T13:32:36.653Z,2.10
2023-03-16T13:35:11.518Z,2.00
2023-03-16T13:37:46.185Z,2.57
2023-03-16T13:40:23.955Z,3.77
2023-03-16T13:42:56.329Z,3.00
2023-03-16T13:45:31.760Z,2.30
2023-03-16T13:48:03.450Z,2.13
2023-03-16T13:50:36.221Z,2.07
2023-03-16T13:53:17.342Z,2.53
2023-03-16T13:55:50.297Z,2.00
2023-03-16T13:58:26.401Z,1.83
2023-03-16T14:00:59.599Z,1.50
2023-03-16T14:03:36.351Z,2.10
2023-03-16T14:06:07.389Z,1.70
2023-03-16T14:08:40.465Z,1.67
2023-03-16T14:11:13.213Z,4.20
2023-03-16T14:13:44.080Z,1.80
2023-03-16T14:16:18.767Z,2.37
2023-03-16T14:18:50.251Z,1.80
2023-03-16T14:21:23.847Z,1.50
2023-03-16T14:24:02.096Z,1.67
2023-03-16T14:26:42.812Z,1.73
2023-03-16T14:29:21.752Z,1.57
2023-03-16T14:31:51.717Z,1.37
2023-03-16T14:34:31.980Z,2.30
2023-03-16T14:37:12.413Z,1.80
2023-03-16T14:39:45.378Z,1.83
2023-03-16T14:42:21.620Z,1.60
2023-03-16T14:44:53.058Z,1.60
2023-03-16T14:47:26.772Z,1.60
2023-03-16T14:49:59.164Z,1.40
2023-03-16T14:52:31.751Z,1.50
2023-03-16T14:55:13.064Z,1.87
2023-03-16T14:57:45.140Z,1.50
2023-03-16T15:00:18.827Z,0.93
2023-03-16T15:02:59.363Z,1.60
2023-03-16T15:05:37.058Z,1.37
2023-03-16T15:08:10.830Z,1.10
2023-03-16T15:10:45.184Z,1.27
2023-03-16T15:13:34.609Z,1.53
2023-03-16T15:16:05.835Z,1.47
2023-03-16T15:18:37.624Z,1.40
2023-03-16T15:21:14.433Z,1.17
2023-03-16T15:23:45.823Z,1.70
2023-03-16T15:26:24.921Z,1.60
2023-03-16T15:28:55.401Z,1.93
2023-03-16T15:31:26.840Z,1.00
2023-03-16T15:33:56.698Z,1.20
2023-03-16T15:36:26.724Z,1.17
2023-03-16T15:38:57.531Z,1.90
2023-03-16T15:41:41.338Z,1.20
2023-03-16T15:44:17.669Z,1.80
2023-03-16T15:46:47.967Z,1.20
2023-03-16T15:49:18.507Z,1.33
2023-03-16T15:51:48.409Z,1.50
2023-03-16T15:54:18.694Z,0.80
2023-03-16T15:56:54.591Z,0.77
2023-03-16T15:59:29.163Z,1.60
2023-03-16T16:01:59.024Z,1.40
2023-03-16T16:04:30.016Z,1.30
2023-03-16T16:07:02.203Z,1.00
2023-03-16T16:09:35.381Z,2.20
2023-03-16T16:12:08.424Z,1.30
2023-03-16T16:14:38.555Z,2.30
2023-03-16T16:17:13.586Z,1.30
2023-03-16T16:19:44.153Z,1.50
2023-03-16T16:22:15.321Z,1.47
2023-03-16T16:24:45.608Z,1.00
2023-03-16T16:27:18.363Z,0.90
2023-03-16T16:29:48.405Z,1.40
2023-03-16T16:32:25.791Z,1.73
2023-03-16T16:35:04.240Z,0.80
2023-03-16T16:37:35.136Z,1.30
2023-03-16T16:40:06.456Z,0.70
2023-03-16T16:42:40.187Z,1.20
2023-03-16T16:45:18.240Z,1.07
2023-03-16T16:47:50.394Z,0.90
2023-03-16T16:50:23.558Z,0.63
2023-03-16T16:52:54.626Z,0.73
2023-03-16T16:55:25.413Z,1.03
2023-03-16T16:57:58.175Z,0.70
2023-03-16T17:00:29.452Z,1.57
2023-03-16T17:02:59.241Z,0.70
2023-03-16T17:05:32.747Z,1.10
2023-03-16T17:08:04.320Z,0.93
2023-03-16T17:10:35.043Z,1.03
2023-03-16T17:13:08.456Z,0.80
2023-03-16T17:15:39.450Z,0.80
2023-03-16T17:18:14.142Z,1.03
2023-03-16T17:20:45.013Z,0.97
2023-03-16T17:23:29.753Z,1.33
2023-03-16T17:26:01.993Z,1.50
2023-03-16T17:28:41.642Z,1.43
2023-03-16T17:31:13.427Z,0.87
2023-03-16T17:33:43.307Z,1.20
2023-03-16T17:36:16.692Z,1.17
2023-03-16T17:38:46.761Z,1.10
2023-03-16T17:41:24.769Z,1.30
2023-03-16T17:43:59.486Z,0.70
2023-03-16T17:46:32.900Z,1.40
2023-03-16T17:49:02.697Z,0.90
2023-03-16T17:51:33.442Z,0.87
2023-03-16T17:54:04.260Z,1.40
2023-03-16T17:56:37.233Z,1.27
2023-03-16T17:59:16.713Z,1.00
2023-03-16T18:01:48.414Z,0.97
2023-03-16T18:04:23.041Z,0.90
2023-03-16T18:06:54.400Z,1.07
2023-03-16T18:09:24.185Z,0.83
2023-03-16T18:11:54.707Z,1.40
2023-03-16T18:14:37.226Z,1.20
2023-03-16T18:17:18.181Z,1.10
2023-03-16T18:19:48.898Z,1.03
2023-03-16T18:22:22.180Z,1.30
2023-03-16T18:24:53.325Z,1.20
2023-03-16T18:27:24.816Z,1.50
2023-03-16T18:29:57.142Z,1.60
2023-03-16T18:32:29.455Z,1.30
2023-03-16T18:35:02.900Z,1.17
2023-03-16T18:37:34.259Z,1.67
2023-03-16T18:40:04.133Z,1.10
2023-03-16T18:42:34.059Z,1.40
2023-03-16T18:45:07.205Z,0.93
2023-03-16T18:47:37.069Z,1.27
2023-03-16T18:50:07.765Z,1.20
2023-03-16T18:52:39.446Z,1.60
2023-03-16T18:55:18.705Z,1.30
2023-03-16T18:57:51.624Z,1.53
2023-03-16T19:00:27.247Z,1.47
2023-03-16T19:02:59.078Z,1.00
2023-03-16T19:05:35.862Z,1.30
2023-03-16T19:08:07.596Z,1.10
2023-03-16T19:10:42.057Z,1.50
2023-03-16T19:13:19.286Z,0.90
2023-03-16T19:15:53.247Z,1.43
2023-03-16T19:18:24.891Z,1.23
2023-03-16T19:20:57.368Z,2.80
2023-03-16T19:23:30.969Z,1.60
2023-03-16T19:26:01.637Z,2.20
2023-03-16T19:28:34.827Z,1.40
2023-03-16T19:31:16.921Z,1.40
2023-03-16T19:33:47.966Z,1.10
2023-03-16T19:36:21.957Z,1.20
2023-03-16T19:38:52.981Z,1.30
2023-03-16T19:41:27.260Z,1.37
2023-03-16T19:43:58.991Z,1.57
2023-03-16T19:46:34.069Z,1.63
2023-03-16T19:49:03.951Z,1.53
2023-03-16T19:51:33.750Z,1.20
2023-03-16T19:54:03.539Z,1.50
2023-03-16T19:56:33.553Z,1.40
2023-03-16T19:59:03.357Z,1.47
2023-03-16T20:01:36.834Z,1.53
2023-03-16T20:04:07.747Z,1.50
2023-03-16T20:06:37.547Z,1.60
2023-03-16T20:09:08.067Z,1.23
2023-03-16T20:11:38.201Z,1.73
2023-03-16T20:14:08.610Z,1.50
2023-03-16T20:16:41.640Z,1.37
2023-03-16T20:19:16.236Z,1.67
2023-03-16T20:21:46.715Z,1.80
2023-03-16T20:24:18.192Z,1.40
2023-03-16T20:26:52.168Z,1.20
2023-03-16T20:29:29.428Z,1.70
2023-03-16T20:32:03.673Z,1.53
2023-03-16T20:34:34.845Z,1.30
2023-03-16T20:37:04.769Z,1.37
2023-03-16T20:39:38.548Z,1.90
2023-03-16T20:42:08.451Z,1.30
2023-03-16T20:44:38.855Z,1.20
2023-03-16T20:47:15.417Z,1.50
2023-03-16T20:49:45.210Z,1.60
2023-03-16T20:52:19.109Z,1.50
2023-03-16T20:54:48.893Z,1.63
2023-03-16T20:57:25.949Z,1.60
2023-03-16T20:59:57.129Z,1.33
2023-03-16T21:02:38.869Z,1.23
2023-03-16T21:05:16.830Z,2.03
2023-03-16T21:07:47.141Z,1.53
2023-03-16T21:10:21.779Z,1.60
2023-03-16T21:12:55.075Z,1.80
2023-03-16T21:15:30.592Z,1.70
2023-03-16T21:18:03.635Z,1.67
2023-03-16T21:20:38.158Z,1.60
2023-03-16T21:23:14.326Z,2.20
2023-03-16T21:25:49.261Z,1.23
2023-03-16T21:28:20.053Z,1.40
2023-03-16T21:30:52.362Z,1.27
2023-03-16T21:33:27.376Z,1.67
2023-03-16T21:36:00.208Z,1.50
2023-03-16T21:38:32.080Z,1.83
2023-03-16T21:41:02.634Z,1.73
2023-03-16T21:43:32.810Z,1.70
2023-03-16T21:46:02.605Z,1.50
2023-03-16T21:48:38.012Z,1.47
2023-03-16T21:51:16.176Z,1.60
2023-03-16T21:53:46.790Z,1.47
2023-03-16T21:56:18.265Z,1.63
2023-03-16T21:58:49.124Z,1.37
2023-03-16T22:01:25.642Z,1.60
2023-03-16T22:03:57.703Z,1.83
2023-03-16T22:06:30.910Z,1.33
2023-03-16T22:09:02.921Z,1.80
2023-03-16T22:11:33.852Z,1.53
2023-03-16T22:14:03.682Z,1.40
2023-03-16T22:16:36.582Z,2.90
2023-03-16T22:19:08.210Z,1.77
2023-03-16T22:21:43.310Z,2.00
2023-03-16T22:24:19.185Z,1.97
2023-03-16T22:26:50.541Z,2.20
2023-03-16T22:29:24.277Z,2.33
2023-03-16T22:31:58.734Z,2.03
2023-03-16T22:34:32.603Z,1.70
2023-03-16T22:37:06.710Z,2.57
2023-03-16T22:39:39.701Z,2.03
2023-03-16T22:42:27.462Z,2.20
2023-03-16T22:44:57.662Z,2.80
2023-03-16T22:47:32.342Z,2.00
2023-03-16T22:50:02.334Z,2.50
2023-03-16T22:52:37.875Z,2.30
2023-03-16T22:55:09.967Z,2.50
2023-03-16T22:57:40.188Z,2.43
2023-03-16T23:00:14.266Z,2.60
2023-03-16T23:02:45.271Z,2.43
2023-03-16T23:05:22.996Z,2.20
2023-03-16T23:07:55.853Z,2.63
2023-03-16T23:10:31.323Z,2.97
2023-03-16T23:13:02.765Z,2.43
2023-03-16T23:15:33.463Z,2.43
2023-03-16T23:18:03.228Z,2.80
2023-03-16T23:20:35.869Z,3.37
2023-03-16T23:23:08.254Z,2.70
2023-03-16T23:25:38.467Z,2.60
2023-03-16T23:28:09.424Z,2.30
2023-03-16T23:30:39.274Z,3.47
2023-03-16T23:33:09.187Z,3.30
2023-03-16T23:35:39.504Z,3.40
2023-03-16T23:38:14.029Z,2.80
2023-03-16T23:40:44.049Z,2.73
2023-03-16T23:43:14.049Z,2.90
2023-03-16T23:45:45.700Z,2.90
2023-03-16T23:48:20.104Z,2.83
2023-03-16T23:50:52.207Z,3.07
2023-03-16T23:53:25.675Z,2.93
2023-03-16T23:55:55.445Z,2.90
2023-03-16T23:58:25.802Z,2.50
